sensor_id;sensor_type;location;lat;lon;timestamp;pressure;altitude;pressure_sealevel;temperature;humidity
49973;BME280;65693;49.798;10.968;2023-03-03T00:01:51;98378.38;;;7.48;51.89
49973;BME280;65693;49.798;10.968;2023-03-03T00:04:18;98374.13;;;7.45;52.11
49973;BME280;65693;49.798;10.968;2023-03-03T00:06:46;98374.97;;;7.46;51.89
49973;BME280;65693;49.798;10.968;2023-03-03T00:09:13;98381.16;;;7.45;51.90
49973;BME280;65693;49.798;10.968;2023-03-03T00:11:42;98378.53;;;7.45;51.76
49973;BME280;65693;49.798;10.968;2023-03-03T00:14:17;98376.81;;;7.44;51.78
49973;BME280;65693;49.798;10.968;2023-03-03T00:16:48;98375.13;;;7.43;52.05
49973;BME280;65693;49.798;10.968;2023-03-03T00:19:36;98384.81;;;7.42;51.80
49973;BME280;65693;49.798;10.968;2023-03-03T00:22:13;98380.47;;;7.41;51.89
49973;BME280;65693;49.798;10.968;2023-03-03T00:24:42;98380.56;;;7.39;51.66
49973;BME280;65693;49.798;10.968;2023-03-03T00:27:16;98382.31;;;7.39;51.83
49973;BME280;65693;49.798;10.968;2023-03-03T00:29:52;98384.13;;;7.38;51.93
49973;BME280;65693;49.798;10.968;2023-03-03T00:32:26;98392.03;;;7.38;51.94
49973;BME280;65693;49.798;10.968;2023-03-03T00:35:22;98384.19;;;7.37;51.69
49973;BME280;65693;49.798;10.968;2023-03-03T00:37:53;98387.69;;;7.37;51.75
49973;BME280;65693;49.798;10.968;2023-03-03T00:40:23;98394.81;;;7.35;51.72
49973;BME280;65693;49.798;10.968;2023-03-03T00:42:54;98394.81;;;7.35;52.02
49973;BME280;65693;49.798;10.968;2023-03-03T00:45:27;98397.44;;;7.35;51.85
49973;BME280;65693;49.798;10.968;2023-03-03T00:47:54;98401.00;;;7.34;51.87
49973;BME280;65693;49.798;10.968;2023-03-03T00:50:30;98405.41;;;7.34;52.01
49973;BME280;65693;49.798;10.968;2023-03-03T00:53:03;98409.03;;;7.31;52.12
49973;BME280;65693;49.798;10.968;2023-03-03T00:55:34;98407.28;;;7.32;51.93
49973;BME280;65693;49.798;10.968;2023-03-03T00:58:01;98399.44;;;7.30;51.91
49973;BME280;65693;49.798;10.968;2023-03-03T01:00:28;98402.06;;;7.30;51.73
49973;BME280;65693;49.798;10.968;2023-03-03T01:02:56;98397.72;;;7.29;51.84
49973;BME280;65693;49.798;10.968;2023-03-03T01:05:28;98397.81;;;7.28;51.93
49973;BME280;65693;49.798;10.968;2023-03-03T01:07:55;98396.00;;;7.28;51.86
49973;BME280;65693;49.798;10.968;2023-03-03T01:10:23;98399.59;;;7.27;51.83
49973;BME280;65693;49.798;10.968;2023-03-03T01:12:53;98396.09;;;7.26;51.98
49973;BME280;65693;49.798;10.968;2023-03-03T01:15:20;98397.81;;;7.28;51.93
49973;BME280;65693;49.798;10.968;2023-03-03T01:17:46;98390.91;;;7.25;51.97
49973;BME280;65693;49.798;10.968;2023-03-03T01:20:14;98387.38;;;7.24;52.00
49973;BME280;65693;49.798;10.968;2023-03-03T01:22:41;98382.22;;;7.23;52.12
49973;BME280;65693;49.798;10.968;2023-03-03T01:25:09;98386.56;;;7.24;51.72
49973;BME280;65693;49.798;10.968;2023-03-03T01:27:35;98391.88;;;7.22;51.93
49973;BME280;65693;49.798;10.968;2023-03-03T01:30:04;98391.03;;;7.22;51.94
49973;BME280;65693;49.798;10.968;2023-03-03T01:32:34;98395.38;;;7.23;51.79
49973;BME280;65693;49.798;10.968;2023-03-03T01:35:04;98392.03;;;7.19;51.88
49973;BME280;65693;49.798;10.968;2023-03-03T01:37:33;98387.63;;;7.20;51.73
49973;BME280;65693;49.798;10.968;2023-03-03T01:40:16;98389.41;;;7.19;52.04
49973;BME280;65693;49.798;10.968;2023-03-03T01:42:44;98378.03;;;7.19;51.97
49973;BME280;65693;49.798;10.968;2023-03-03T01:45:19;98379.78;;;7.18;52.01
49973;BME280;65693;49.798;10.968;2023-03-03T01:47:50;98377.16;;;7.18;52.12
49973;BME280;65693;49.798;10.968;2023-03-03T01:50:26;98378.91;;;7.18;52.06
49973;BME280;65693;49.798;10.968;2023-03-03T01:52:57;98377.22;;;7.17;51.82
49973;BME280;65693;49.798;10.968;2023-03-03T01:55:34;98379.00;;;7.16;52.00
49973;BME280;65693;49.798;10.968;2023-03-03T01:58:07;98377.31;;;7.15;51.99
49973;BME280;65693;49.798;10.968;2023-03-03T02:00:40;98375.50;;;7.16;52.24
49973;BME280;65693;49.798;10.968;2023-03-03T02:03:10;98374.72;;;7.13;52.02
49973;BME280;65693;49.798;10.968;2023-03-03T02:05:41;98375.66;;;7.12;52.07
49973;BME280;65693;49.798;10.968;2023-03-03T02:08:11;98375.66;;;7.12;51.78
49973;BME280;65693;49.798;10.968;2023-03-03T02:10:56;98379.22;;;7.11;52.04
49973;BME280;65693;49.798;10.968;2023-03-03T02:13:25;98378.38;;;7.11;52.00
49973;BME280;65693;49.798;10.968;2023-03-03T02:15:53;98380.16;;;7.10;51.89
49973;BME280;65693;49.798;10.968;2023-03-03T02:18:20;98384.50;;;7.11;51.83
49973;BME280;65693;49.798;10.968;2023-03-03T02:20:52;98388.06;;;7.10;51.84
49973;BME280;65693;49.798;10.968;2023-03-03T02:23:24;98382.00;;;7.08;51.87
49973;BME280;65693;49.798;10.968;2023-03-03T02:26:13;98380.28;;;7.07;51.93
49973;BME280;65693;49.798;10.968;2023-03-03T02:28:41;98373.31;;;7.06;51.94
49973;BME280;65693;49.798;10.968;2023-03-03T02:31:09;98377.66;;;7.07;52.07
49973;BME280;65693;49.798;10.968;2023-03-03T02:33:37;98370.69;;;7.06;51.92
49973;BME280;65693;49.798;10.968;2023-03-03T02:36:04;98382.94;;;7.07;52.01
49973;BME280;65693;49.798;10.968;2023-03-03T02:38:35;98379.53;;;7.05;52.02
49973;BME280;65693;49.798;10.968;2023-03-03T02:41:10;98376.94;;;7.04;52.04
49973;BME280;65693;49.798;10.968;2023-03-03T02:43:50;98371.66;;;7.04;52.17
49973;BME280;65693;49.798;10.968;2023-03-03T02:46:20;98376.00;;;7.05;52.11
49973;BME280;65693;49.798;10.968;2023-03-03T02:48:50;98372.53;;;7.04;51.85
49973;BME280;65693;49.798;10.968;2023-03-03T02:51:24;98369.97;;;7.03;52.00
49973;BME280;65693;49.798;10.968;2023-03-03T02:53:53;98373.47;;;7.03;51.92
49973;BME280;65693;49.798;10.968;2023-03-03T02:56:28;98378.78;;;7.02;52.03
49973;BME280;65693;49.798;10.968;2023-03-03T02:58:56;98381.44;;;7.02;51.90
49973;BME280;65693;49.798;10.968;2023-03-03T03:01:26;98385.84;;;7.01;52.07
49973;BME280;65693;49.798;10.968;2023-03-03T03:03:57;98378.84;;;7.00;52.09
49973;BME280;65693;49.798;10.968;2023-03-03T03:06:26;98382.34;;;7.01;51.94
49973;BME280;65693;49.798;10.968;2023-03-03T03:08:53;98384.13;;;7.00;52.12
49973;BME280;65693;49.798;10.968;2023-03-03T03:11:22;98385.97;;;6.98;51.88
49973;BME280;65693;49.798;10.968;2023-03-03T03:13:57;98383.34;;;6.98;52.19
49973;BME280;65693;49.798;10.968;2023-03-03T03:16:24;98391.25;;;6.98;51.83
49973;BME280;65693;49.798;10.968;2023-03-03T03:18:50;98388.63;;;6.98;52.03
49973;BME280;65693;49.798;10.968;2023-03-03T03:21:18;98395.69;;;6.97;51.86
49973;BME280;65693;49.798;10.968;2023-03-03T03:23:48;98394.91;;;6.95;51.97
49973;BME280;65693;49.798;10.968;2023-03-03T03:26:15;98398.47;;;6.94;52.03
49973;BME280;65693;49.798;10.968;2023-03-03T03:28:45;98397.66;;;6.92;52.13
49973;BME280;65693;49.798;10.968;2023-03-03T03:31:19;98395.03;;;6.92;52.09
49973;BME280;65693;49.798;10.968;2023-03-03T03:33:45;98384.47;;;6.92;51.73
49973;BME280;65693;49.798;10.968;2023-03-03T03:36:12;98387.13;;;6.92;51.96
49973;BME280;65693;49.798;10.968;2023-03-03T03:38:40;98385.34;;;6.93;51.91
49973;BME280;65693;49.798;10.968;2023-03-03T03:41:11;98380.06;;;6.93;52.08
49973;BME280;65693;49.798;10.968;2023-03-03T03:43:46;98368.75;;;6.91;52.00
49973;BME280;65693;49.798;10.968;2023-03-03T03:46:16;98378.44;;;6.90;51.89
49973;BME280;65693;49.798;10.968;2023-03-03T03:48:44;98387.22;;;6.91;52.05
49973;BME280;65693;49.798;10.968;2023-03-03T03:51:11;98380.22;;;6.90;52.02
49973;BME280;65693;49.798;10.968;2023-03-03T03:53:37;98382.00;;;6.89;52.03
49973;BME280;65693;49.798;10.968;2023-03-03T03:56:04;98393.47;;;6.88;52.02
49973;BME280;65693;49.798;10.968;2023-03-03T03:58:31;98390.91;;;6.87;52.11
49973;BME280;65693;49.798;10.968;2023-03-03T04:01:01;98396.19;;;6.87;52.05
49973;BME280;65693;49.798;10.968;2023-03-03T04:03:28;98397.88;;;6.88;51.85
49973;BME280;65693;49.798;10.968;2023-03-03T04:05:55;98398.88;;;6.85;51.89
49973;BME280;65693;49.798;10.968;2023-03-03T04:08:21;98398.00;;;6.84;52.22
49973;BME280;65693;49.798;10.968;2023-03-03T04:10:49;98394.53;;;6.84;52.10
49973;BME280;65693;49.798;10.968;2023-03-03T04:13:16;98395.38;;;6.84;52.14
49973;BME280;65693;49.798;10.968;2023-03-03T04:15:47;98396.28;;;6.83;52.19
49973;BME280;65693;49.798;10.968;2023-03-03T04:18:17;98400.72;;;6.83;52.00
49973;BME280;65693;49.798;10.968;2023-03-03T04:21:00;98405.13;;;6.82;52.13
49973;BME280;65693;49.798;10.968;2023-03-03T04:23:30;98398.16;;;6.81;52.24
49973;BME280;65693;49.798;10.968;2023-03-03T04:25:59;98398.16;;;6.81;52.13
49973;BME280;65693;49.798;10.968;2023-03-03T04:28:25;98397.22;;;6.82;52.08
49973;BME280;65693;49.798;10.968;2023-03-03T04:30:52;98389.47;;;6.79;52.13
49973;BME280;65693;49.798;10.968;2023-03-03T04:33:18;98394.69;;;6.81;52.07
49973;BME280;65693;49.798;10.968;2023-03-03T04:35:45;98396.44;;;6.80;52.11
49973;BME280;65693;49.798;10.968;2023-03-03T04:38:12;98406.16;;;6.80;52.04
49973;BME280;65693;49.798;10.968;2023-03-03T04:40:39;98409.69;;;6.79;52.34
49973;BME280;65693;49.798;10.968;2023-03-03T04:43:06;98413.25;;;6.78;52.16
49973;BME280;65693;49.798;10.968;2023-03-03T04:45:32;98409.75;;;6.77;51.99
49973;BME280;65693;49.798;10.968;2023-03-03T04:47:59;98403.72;;;6.75;52.07
49973;BME280;65693;49.798;10.968;2023-03-03T04:50:25;98408.09;;;6.75;52.17
49973;BME280;65693;49.798;10.968;2023-03-03T04:52:52;98414.31;;;6.74;51.94
49973;BME280;65693;49.798;10.968;2023-03-03T04:55:25;98407.13;;;6.77;52.06
49973;BME280;65693;49.798;10.968;2023-03-03T04:57:52;98408.06;;;6.76;52.10
49973;BME280;65693;49.798;10.968;2023-03-03T05:00:23;98411.56;;;6.77;52.14
49973;BME280;65693;49.798;10.968;2023-03-03T05:02:51;98406.19;;;6.78;51.86
49973;BME280;65693;49.798;10.968;2023-03-03T05:05:19;98407.13;;;6.77;51.97
49973;BME280;65693;49.798;10.968;2023-03-03T05:07:48;98407.28;;;6.74;51.96
49973;BME280;65693;49.798;10.968;2023-03-03T05:10:17;98406.50;;;6.72;52.01
49973;BME280;65693;49.798;10.968;2023-03-03T05:12:45;98417.09;;;6.70;52.10
49973;BME280;65693;49.798;10.968;2023-03-03T05:15:11;98424.06;;;6.72;52.09
49973;BME280;65693;49.798;10.968;2023-03-03T05:17:39;98425.06;;;6.69;52.07
49973;BME280;65693;49.798;10.968;2023-03-03T05:20:09;98416.25;;;6.70;52.00
49973;BME280;65693;49.798;10.968;2023-03-03T05:22:36;98423.31;;;6.68;52.24
49973;BME280;65693;49.798;10.968;2023-03-03T05:25:03;98424.19;;;6.68;51.99
49973;BME280;65693;49.798;10.968;2023-03-03T05:27:30;98429.47;;;6.68;52.14
49973;BME280;65693;49.798;10.968;2023-03-03T05:30:04;98430.41;;;6.67;52.17
49973;BME280;65693;49.798;10.968;2023-03-03T05:32:33;98439.13;;;6.68;51.84
49973;BME280;65693;49.798;10.968;2023-03-03T05:35:03;98428.28;;;6.55;50.13
49973;BME280;65693;49.798;10.968;2023-03-03T05:37:29;98423.13;;;6.53;50.31
49973;BME280;65693;49.798;10.968;2023-03-03T05:39:56;98424.72;;;6.56;50.83
49973;BME280;65693;49.798;10.968;2023-03-03T05:42:26;98422.19;;;6.54;51.02
49973;BME280;65693;49.798;10.968;2023-03-03T05:44:56;98430.00;;;6.56;51.16
49973;BME280;65693;49.798;10.968;2023-03-03T05:47:26;98431.84;;;6.54;51.37
49973;BME280;65693;49.798;10.968;2023-03-03T05:49:53;98431.00;;;6.53;51.35
49973;BME280;65693;49.798;10.968;2023-03-03T05:52:23;98431.00;;;6.53;51.47
49973;BME280;65693;49.798;10.968;2023-03-03T05:54:59;98432.78;;;6.53;51.65
49973;BME280;65693;49.798;10.968;2023-03-03T05:57:30;98445.94;;;6.53;51.68
49973;BME280;65693;49.798;10.968;2023-03-03T06:00:06;98432.00;;;6.51;51.53
49973;BME280;65693;49.798;10.968;2023-03-03T06:02:44;98439.84;;;6.52;51.64
49973;BME280;65693;49.798;10.968;2023-03-03T06:05:12;98438.09;;;6.51;51.58
49973;BME280;65693;49.798;10.968;2023-03-03T06:07:39;98450.41;;;6.51;51.78
49973;BME280;65693;49.798;10.968;2023-03-03T06:10:08;98446.91;;;6.50;51.59
49973;BME280;65693;49.798;10.968;2023-03-03T06:12:36;98454.81;;;6.50;51.76
49973;BME280;65693;49.798;10.968;2023-03-03T06:15:11;98460.81;;;6.54;51.49
49973;BME280;65693;49.798;10.968;2023-03-03T06:17:44;98455.63;;;6.52;51.53
49973;BME280;65693;49.798;10.968;2023-03-03T06:20:14;98465.25;;;6.53;51.43
49973;BME280;65693;49.798;10.968;2023-03-03T06:22:43;98472.31;;;6.51;51.92
49973;BME280;65693;49.798;10.968;2023-03-03T06:25:12;98467.06;;;6.51;51.77
49973;BME280;65693;49.798;10.968;2023-03-03T06:27:40;98465.44;;;6.49;51.78
49973;BME280;65693;49.798;10.968;2023-03-03T06:30:09;98474.13;;;6.51;51.83
49973;BME280;65693;49.798;10.968;2023-03-03T06:32:38;98471.53;;;6.49;51.81
49973;BME280;65693;49.798;10.968;2023-03-03T06:35:11;98475.97;;;6.49;51.93
49973;BME280;65693;49.798;10.968;2023-03-03T06:37:39;98474.25;;;6.48;52.11
49973;BME280;65693;49.798;10.968;2023-03-03T06:40:10;98476.03;;;6.47;52.05
49973;BME280;65693;49.798;10.968;2023-03-03T06:42:40;98476.94;;;6.46;52.07
49973;BME280;65693;49.798;10.968;2023-03-03T06:45:08;98480.50;;;6.45;52.24
49973;BME280;65693;49.798;10.968;2023-03-03T06:47:38;98490.19;;;6.45;52.10
49973;BME280;65693;49.798;10.968;2023-03-03T06:50:32;98492.75;;;6.46;52.28
49973;BME280;65693;49.798;10.968;2023-03-03T06:53:11;98491.03;;;6.45;52.01
49973;BME280;65693;49.798;10.968;2023-03-03T06:55:38;98488.47;;;6.44;52.09
49973;BME280;65693;49.798;10.968;2023-03-03T06:58:10;98503.41;;;6.43;51.76
49973;BME280;65693;49.798;10.968;2023-03-03T07:00:40;98499.00;;;6.44;52.10
49973;BME280;65693;49.798;10.968;2023-03-03T07:03:17;98510.38;;;6.44;52.20
49973;BME280;65693;49.798;10.968;2023-03-03T07:05:45;98516.53;;;6.45;52.18
49973;BME280;65693;49.798;10.968;2023-03-03T07:08:22;98518.28;;;6.44;52.10
49973;BME280;65693;49.798;10.968;2023-03-03T07:10:51;98534.09;;;6.44;52.14
49973;BME280;65693;49.798;10.968;2023-03-03T07:13:21;98529.75;;;6.43;52.22
49973;BME280;65693;49.798;10.968;2023-03-03T07:15:58;98530.53;;;6.45;52.16
49973;BME280;65693;49.798;10.968;2023-03-03T07:18:35;98535.88;;;6.44;51.80
49973;BME280;65693;49.798;10.968;2023-03-03T07:21:18;98535.00;;;6.43;52.14
49973;BME280;65693;49.798;10.968;2023-03-03T07:23:50;98535.00;;;6.43;52.12
49973;BME280;65693;49.798;10.968;2023-03-03T07:26:28;98541.19;;;6.42;52.26
49973;BME280;65693;49.798;10.968;2023-03-03T07:29:02;98535.88;;;6.44;52.41
49973;BME280;65693;49.798;10.968;2023-03-03T07:31:35;98542.03;;;6.43;52.21
49973;BME280;65693;49.798;10.968;2023-03-03T07:34:16;98557.00;;;6.42;52.24
49973;BME280;65693;49.798;10.968;2023-03-03T07:36:56;98560.53;;;6.41;52.31
49973;BME280;65693;49.798;10.968;2023-03-03T07:39:30;98574.50;;;6.43;52.31
49973;BME280;65693;49.798;10.968;2023-03-03T07:42:16;98578.00;;;6.44;52.08
49973;BME280;65693;49.798;10.968;2023-03-03T07:44:50;98574.38;;;6.46;52.24
49973;BME280;65693;49.798;10.968;2023-03-03T07:47:20;98573.53;;;6.46;51.99
49973;BME280;65693;49.798;10.968;2023-03-03T07:49:48;98580.63;;;6.44;52.24
49973;BME280;65693;49.798;10.968;2023-03-03T07:52:51;98575.28;;;6.45;52.32
49973;BME280;65693;49.798;10.968;2023-03-03T07:55:29;98582.41;;;6.43;52.42
49973;BME280;65693;49.798;10.968;2023-03-03T07:58:19;98573.56;;;6.44;52.22
49973;BME280;65693;49.798;10.968;2023-03-03T08:01:28;98591.09;;;6.45;52.24
49973;BME280;65693;49.798;10.968;2023-03-03T08:03:57;98588.53;;;6.44;52.33
49973;BME280;65693;49.798;10.968;2023-03-03T08:06:44;98590.25;;;6.45;52.28
49973;BME280;65693;49.798;10.968;2023-03-03T08:09:42;98593.78;;;6.44;51.93
49973;BME280;65693;49.798;10.968;2023-03-03T08:12:36;98584.06;;;6.46;52.15
49973;BME280;65693;49.798;10.968;2023-03-03T08:15:24;98573.56;;;6.44;52.25
49973;BME280;65693;49.798;10.968;2023-03-03T08:18:00;98580.56;;;6.45;52.46
49973;BME280;65693;49.798;10.968;2023-03-03T08:20:46;98572.75;;;6.44;52.29
49973;BME280;65693;49.798;10.968;2023-03-03T08:23:15;98574.44;;;6.45;52.16
49973;BME280;65693;49.798;10.968;2023-03-03T08:25:44;98569.22;;;6.43;52.31
49973;BME280;65693;49.798;10.968;2023-03-03T08:28:13;98568.34;;;6.43;52.30
49973;BME280;65693;49.798;10.968;2023-03-03T08:30:49;98571.88;;;6.43;52.17
49973;BME280;65693;49.798;10.968;2023-03-03T08:33:20;98577.13;;;6.43;52.29
49973;BME280;65693;49.798;10.968;2023-03-03T08:35:55;98576.22;;;6.44;52.28
49973;BME280;65693;49.798;10.968;2023-03-03T08:38:24;98570.94;;;6.44;52.14
49973;BME280;65693;49.798;10.968;2023-03-03T08:40:56;98578.78;;;6.46;52.25
49973;BME280;65693;49.798;10.968;2023-03-03T08:43:25;98575.28;;;6.45;52.13
49973;BME280;65693;49.798;10.968;2023-03-03T08:45:54;98573.53;;;6.46;52.16
49973;BME280;65693;49.798;10.968;2023-03-03T08:48:23;98574.44;;;6.45;52.35
49973;BME280;65693;49.798;10.968;2023-03-03T08:50:49;98575.28;;;6.45;52.36
49973;BME280;65693;49.798;10.968;2023-03-03T08:53:20;98572.59;;;6.47;52.41
49973;BME280;65693;49.798;10.968;2023-03-03T08:55:58;98570.91;;;6.46;52.38
49973;BME280;65693;49.798;10.968;2023-03-03T08:58:25;98570.03;;;6.45;52.37
49973;BME280;65693;49.798;10.968;2023-03-03T09:00:54;98567.25;;;6.48;52.39
49973;BME280;65693;49.798;10.968;2023-03-03T09:03:23;98574.31;;;6.48;52.25
49973;BME280;65693;49.798;10.968;2023-03-03T09:05:49;98582.13;;;6.49;52.38
49973;BME280;65693;49.798;10.968;2023-03-03T09:08:17;98584.75;;;6.49;52.21
49973;BME280;65693;49.798;10.968;2023-03-03T09:10:47;98582.13;;;6.49;52.17
49973;BME280;65693;49.798;10.968;2023-03-03T09:13:30;98577.88;;;6.47;52.25
49973;BME280;65693;49.798;10.968;2023-03-03T09:15:59;98573.31;;;6.50;52.38
49973;BME280;65693;49.798;10.968;2023-03-03T09:18:41;98573.31;;;6.50;52.25
49973;BME280;65693;49.798;10.968;2023-03-03T09:21:21;98580.41;;;6.48;52.52
49973;BME280;65693;49.798;10.968;2023-03-03T09:23:53;98586.47;;;6.50;52.12
49973;BME280;65693;49.798;10.968;2023-03-03T09:26:27;98587.34;;;6.51;52.44
49973;BME280;65693;49.798;10.968;2023-03-03T09:29:20;98583.84;;;6.50;52.49
49973;BME280;65693;49.798;10.968;2023-03-03T09:31:50;98585.56;;;6.51;52.24
49973;BME280;65693;49.798;10.968;2023-03-03T09:34:22;98590.81;;;6.51;52.20
49973;BME280;65693;49.798;10.968;2023-03-03T09:36:51;98582.91;;;6.51;52.36
49973;BME280;65693;49.798;10.968;2023-03-03T09:39:20;98583.78;;;6.52;52.29
49973;BME280;65693;49.798;10.968;2023-03-03T09:42:08;98584.66;;;6.52;52.46
49973;BME280;65693;49.798;10.968;2023-03-03T09:44:54;98583.75;;;6.53;52.38
49973;BME280;65693;49.798;10.968;2023-03-03T09:50:27;98591.56;;;6.55;52.25
49973;BME280;65693;49.798;10.968;2023-03-03T09:53:11;98595.06;;;6.55;52.37
49973;BME280;65693;49.798;10.968;2023-03-03T09:55:48;98599.41;;;6.57;52.40
49973;BME280;65693;49.798;10.968;2023-03-03T09:58:36;98600.19;;;6.59;52.46
49973;BME280;65693;49.798;10.968;2023-03-03T10:01:46;98600.19;;;6.59;52.41
49973;BME280;65693;49.798;10.968;2023-03-03T10:04:39;98597.56;;;6.59;52.49
49973;BME280;65693;49.798;10.968;2023-03-03T10:07:34;98606.25;;;6.61;52.41
49973;BME280;65693;49.798;10.968;2023-03-03T10:10:35;98606.25;;;6.61;52.28
49973;BME280;65693;49.798;10.968;2023-03-03T10:13:18;98613.22;;;6.62;52.38
49973;BME280;65693;49.798;10.968;2023-03-03T10:16:00;98605.28;;;6.63;52.47
49973;BME280;65693;49.798;10.968;2023-03-03T10:18:41;98607.13;;;6.61;52.43
49973;BME280;65693;49.798;10.968;2023-03-03T10:21:17;98611.38;;;6.64;52.38
49973;BME280;65693;49.798;10.968;2023-03-03T10:23:55;98624.50;;;6.65;52.38
49973;BME280;65693;49.798;10.968;2023-03-03T10:26:47;98613.97;;;6.65;52.45
49973;BME280;65693;49.798;10.968;2023-03-03T10:29:25;98608.72;;;6.65;52.36
49973;BME280;65693;49.798;10.968;2023-03-03T10:35:16;98604.22;;;6.67;52.46
49973;BME280;65693;49.798;10.968;2023-03-03T10:37:56;98605.88;;;6.70;52.44
49973;BME280;65693;49.798;10.968;2023-03-03T10:40:34;98599.63;;;6.73;52.45
49973;BME280;65693;49.798;10.968;2023-03-03T10:43:21;98614.56;;;6.72;52.61
49973;BME280;65693;49.798;10.968;2023-03-03T10:46:08;98614.50;;;6.74;52.45
49973;BME280;65693;49.798;10.968;2023-03-03T10:48:52;98615.38;;;6.74;52.52
49973;BME280;65693;49.798;10.968;2023-03-03T10:51:53;98606.53;;;6.75;52.52
49973;BME280;65693;49.798;10.968;2023-03-03T10:54:54;98614.44;;;6.75;52.40
49973;BME280;65693;49.798;10.968;2023-03-03T10:57:37;98608.25;;;6.76;52.41
49973;BME280;65693;49.798;10.968;2023-03-03T11:00:20;98605.56;;;6.78;52.59
49973;BME280;65693;49.798;10.968;2023-03-03T11:03:18;98604.66;;;6.79;52.54
49973;BME280;65693;49.798;10.968;2023-03-03T11:05:58;98605.47;;;6.79;52.50
49973;BME280;65693;49.798;10.968;2023-03-03T11:08:29;98596.75;;;6.79;52.57
49973;BME280;65693;49.798;10.968;2023-03-03T11:11:06;98593.97;;;6.82;52.53
49973;BME280;65693;49.798;10.968;2023-03-03T11:13:44;98600.94;;;6.83;52.63
49973;BME280;65693;49.798;10.968;2023-03-03T11:16:34;98586.84;;;6.84;52.67
49973;BME280;65693;49.798;10.968;2023-03-03T11:19:11;98592.97;;;6.84;52.61
49973;BME280;65693;49.798;10.968;2023-03-03T11:21:47;98585.88;;;6.87;52.71
49973;BME280;65693;49.798;10.968;2023-03-03T11:24:37;98582.31;;;6.88;52.56
49973;BME280;65693;49.798;10.968;2023-03-03T11:27:22;98588.44;;;6.88;52.58
49973;BME280;65693;49.798;10.968;2023-03-03T11:30:05;98584.03;;;6.89;52.48
49973;BME280;65693;49.798;10.968;2023-03-03T11:32:44;98584.81;;;6.91;52.61
49973;BME280;65693;49.798;10.968;2023-03-03T11:35:21;98581.25;;;6.92;52.75
49973;BME280;65693;49.798;10.968;2023-03-03T11:37:57;98575.06;;;6.93;52.66
49973;BME280;65693;49.798;10.968;2023-03-03T11:40:44;98568.88;;;6.94;52.70
49973;BME280;65693;49.798;10.968;2023-03-03T11:43:18;98567.03;;;6.96;52.70
49973;BME280;65693;49.798;10.968;2023-03-03T11:45:50;98564.34;;;6.97;52.71
49973;BME280;65693;49.798;10.968;2023-03-03T11:48:24;98564.25;;;6.99;52.65
49973;BME280;65693;49.798;10.968;2023-03-03T11:51:03;98557.22;;;7.00;52.59
49973;BME280;65693;49.798;10.968;2023-03-03T11:53:42;98558.06;;;7.00;52.58
49973;BME280;65693;49.798;10.968;2023-03-03T11:56:21;98543.91;;;7.03;52.86
49973;BME280;65693;49.798;10.968;2023-03-03T11:58:59;98549.09;;;7.04;52.69
49973;BME280;65693;49.798;10.968;2023-03-03T12:01:35;98544.69;;;7.05;52.65
49973;BME280;65693;49.798;10.968;2023-03-03T12:04:10;98543.69;;;7.07;52.52
49973;BME280;65693;49.798;10.968;2023-03-03T12:06:56;98523.44;;;7.08;52.69
49973;BME280;65693;49.798;10.968;2023-03-03T12:09:37;98525.97;;;7.11;52.42
49973;BME280;65693;49.798;10.968;2023-03-03T12:12:13;98522.31;;;7.13;52.55
49973;BME280;65693;49.798;10.968;2023-03-03T12:15:00;98529.31;;;7.15;52.68
49973;BME280;65693;49.798;10.968;2023-03-03T12:17:52;98528.38;;;7.16;52.62
49973;BME280;65693;49.798;10.968;2023-03-03T12:20:26;98527.53;;;7.15;52.67
49973;BME280;65693;49.798;10.968;2023-03-03T12:23:06;98519.53;;;7.17;52.75
49973;BME280;65693;49.798;10.968;2023-03-03T12:25:50;98522.13;;;7.18;52.72
49973;BME280;65693;49.798;10.968;2023-03-03T12:28:35;98524.72;;;7.20;52.56
49973;BME280;65693;49.798;10.968;2023-03-03T12:31:34;98522.06;;;7.20;52.64
49973;BME280;65693;49.798;10.968;2023-03-03T12:34:14;98526.41;;;7.21;52.63
49973;BME280;65693;49.798;10.968;2023-03-03T12:40:05;98526.28;;;7.24;52.71
49973;BME280;65693;49.798;10.968;2023-03-03T12:43:06;98521.78;;;7.26;52.60
49973;BME280;65693;49.798;10.968;2023-03-03T12:46:15;98523.44;;;7.29;52.65
49973;BME280;65693;49.798;10.968;2023-03-03T12:48:49;98517.22;;;7.30;52.87
49973;BME280;65693;49.798;10.968;2023-03-03T12:51:30;98518.94;;;7.31;52.75
49973;BME280;65693;49.798;10.968;2023-03-03T12:54:13;98509.19;;;7.33;52.74
49973;BME280;65693;49.798;10.968;2023-03-03T12:56:51;98500.34;;;7.34;52.92
49973;BME280;65693;49.798;10.968;2023-03-03T12:59:21;98507.25;;;7.36;52.69
49973;BME280;65693;49.798;10.968;2023-03-03T13:04:52;98504.47;;;7.39;52.80
49973;BME280;65693;49.798;10.968;2023-03-03T13:07:26;98500.03;;;7.40;52.74
49973;BME280;65693;49.798;10.968;2023-03-03T13:10:07;98496.41;;;7.43;52.74
49973;BME280;65693;49.798;10.968;2023-03-03T13:12:43;98502.47;;;7.45;52.69
49973;BME280;65693;49.798;10.968;2023-03-03T13:15:15;98498.91;;;7.46;52.91
49973;BME280;65693;49.798;10.968;2023-03-03T13:18:12;98490.94;;;7.47;52.82
49973;BME280;65693;49.798;10.968;2023-03-03T13:20:48;98499.63;;;7.49;52.65
49973;BME280;65693;49.798;10.968;2023-03-03T13:23:26;98497.84;;;7.50;52.88
49973;BME280;65693;49.798;10.968;2023-03-03T13:26:05;98494.25;;;7.51;52.69
49973;BME280;65693;49.798;10.968;2023-03-03T13:28:40;98491.50;;;7.54;52.78
49973;BME280;65693;49.798;10.968;2023-03-03T13:31:14;98493.22;;;7.55;52.29
49973;BME280;65693;49.798;10.968;2023-03-03T13:33:50;98494.06;;;7.55;52.66
49973;BME280;65693;49.798;10.968;2023-03-03T13:36:22;98494.94;;;7.56;52.70
49973;BME280;65693;49.798;10.968;2023-03-03T13:38:56;98487.78;;;7.58;52.87
49973;BME280;65693;49.798;10.968;2023-03-03T13:41:27;98481.59;;;7.59;52.47
49973;BME280;65693;49.798;10.968;2023-03-03T13:44:03;98483.28;;;7.60;52.69
49973;BME280;65693;49.798;10.968;2023-03-03T13:46:40;98484.06;;;7.62;52.70
49973;BME280;65693;49.798;10.968;2023-03-03T13:49:21;98483.09;;;7.65;52.65
49973;BME280;65693;49.798;10.968;2023-03-03T13:51:57;98479.56;;;7.64;52.56